F/V Bugel Ar Konk — FGSH — position and weather

sailwx.info

Track history (hours):
 
Tides and Currents Weather Stations Pressure Air Temp Water Temp Dewpoint Dewpoint Depression Visibility Wind Speed Wind Dir Waves Ship Positions

F/V Bugel Ar Konk

Last reported at 2018-Feb-12 18:15 UTC. Time now 2018-Feb-20 23:51 UTC.
Position N 48°22' W 004°47'.
Warning: this ship's position is 8 days out of date.

Length 16 m.

Type: Fishing. MMSI: 228336000.

Date/timePositionNaut miles runAvg speedWind from/ knotsBaromVisibWave heightAir tempDewpointWater temp
2018-Feb-12 18:15N 48°22' W 004°47'0 0.1
2018-Feb-12 18:00N 48°22' W 004°47'2 4.7
2018-Feb-12 17:31N 48°19' W 004°48'4 8.4
2018-Feb-12 17:00N 48°17' W 004°53'5 9.0
2018-Feb-12 16:30N 48°14' W 004°59'5 9.1
2018-Feb-12 16:00N 48°12' W 005°04'5 9.3
2018-Feb-12 15:30N 48°09' W 005°10'5 9.4
2018-Feb-12 15:00N 48°06' W 005°15'5 9.6
2018-Feb-12 14:30N 48°03' W 005°21'3 6.1
2018-Feb-12 13:58N 48°01' W 005°25'1 1.5
2018-Feb-12 13:30N 48°00' W 005°25'1 2.2
2018-Feb-12 13:00N 47°59' W 005°25'2 3.2
2018-Feb-12 12:19N 47°57' W 005°23'1 2.1
2018-Feb-12 11:56N 47°56' W 005°23'1 1.5
2018-Feb-12 11:17N 47°55' W 005°23'1 1.5
2018-Feb-12 10:55N 47°55' W 005°23'0 0.8
2018-Feb-12 10:30N 47°54' W 005°23'1 0.5
2018-Feb-12 09:19N 47°55' W 005°24'1 3.2
2018-Feb-12 09:00N 47°55' W 005°25'0 0.9
2018-Feb-12 08:28N 47°55' W 005°25'1 1.2
2018-Feb-12 08:00N 47°56' W 005°25'2 2.1
2018-Feb-12 07:16N 47°58' W 005°25'1 4.1
2018-Feb-12 06:59N 47°58' W 005°26'2 3.9
2018-Feb-12 06:30N 48°00' W 005°28'1 1.6
2018-Feb-12 05:58N 48°01' W 005°27'3 6.4
2018-Feb-12 05:29N 48°04' W 005°27'1 1.5
2018-Feb-12 04:56N 48°04' W 005°26'4 9.2
2018-Feb-12 04:30N 48°06' W 005°20'5 9.1
2018-Feb-12 03:59N 48°08' W 005°14'4 9.1
2018-Feb-12 03:30N 48°10' W 005°09'5 9.0
2018-Feb-12 02:59N 48°13' W 005°03'4 8.8
2018-Feb-12 02:30N 48°15' W 004°57'4 8.9
2018-Feb-12 02:00N 48°17' W 004°52'4 8.5
2018-Feb-12 01:30N 48°20' W 004°48'1 0.1
2018-Feb-11 17:01N 48°22' W 004°47'0 0.0
2018-Feb-11 16:58N 48°22' W 004°47'0 0.0
2018-Feb-11 16:28N 48°22' W 004°47'3 6.2
2018-Feb-11 16:01N 48°19' W 004°49'4 8.7
2018-Feb-11 15:31N 48°17' W 004°54'4 8.9
2018-Feb-11 15:00N 48°15' W 005°00'5 8.9
2018-Feb-11 14:30N 48°12' W 005°06'4 8.9
2018-Feb-11 14:00N 48°10' W 005°12'5 9.1
2018-Feb-11 13:27N 48°08' W 005°18'4 9.1
2018-Feb-11 13:00N 48°06' W 005°24'3 5.3
2018-Feb-11 12:29N 48°04' W 005°27'1 1.4
2018-Feb-11 11:57N 48°03' W 005°27'1 1.7
2018-Feb-11 11:30N 48°03' W 005°27'1 1.5
2018-Feb-11 11:00N 48°02' W 005°27'2 2.9
2018-Feb-11 10:29N 48°01' W 005°25'1 1.9
2018-Feb-11 09:58N 47°60' W 005°25'1 3.1
2018-Feb-11 09:29N 47°59' W 005°27'1 1.7
2018-Feb-11 08:59N 47°58' W 005°28'3 4.7
2018-Feb-11 08:27N 47°56' W 005°27'1 1.3
2018-Feb-11 07:22N 47°55' W 005°27'1 2.5
2018-Feb-11 06:54N 47°56' W 005°28'1 1.9
2018-Feb-11 06:25N 47°57' W 005°28'1 1.8
2018-Feb-11 06:00N 47°57' W 005°28'0 0.8
2018-Feb-11 05:27N 47°58' W 005°27'4 9.3
2018-Feb-11 05:00N 48°00' W 005°23'5 9.3
2018-Feb-11 04:30N 48°03' W 005°17'5 9.2
2018-Feb-11 03:58N 48°07' W 005°12'4 8.2
2018-Feb-11 03:29N 48°09' W 005°07'4 8.9
2018-Feb-11 03:00N 48°11' W 005°02'4 8.9
2018-Feb-11 02:30N 48°14' W 004°57'5 9.1
2018-Feb-11 02:00N 48°17' W 004°52'5 9.2
2018-Feb-11 01:30N 48°21' W 004°47'1 0.1
2018-Feb-10 17:28N 48°22' W 004°47'0 0.1
2018-Feb-10 17:00N 48°22' W 004°47'0 0.0
2018-Feb-10 16:30N 48°22' W 004°47'3 5.3
2018-Feb-10 16:01N 48°19' W 004°49'5 9.1
2018-Feb-10 15:30N 48°17' W 004°54'5 9.5
2018-Feb-10 15:00N 48°15' W 005°01'5 9.5
2018-Feb-10 14:29N 48°12' W 005°07'5 9.5
2018-Feb-10 13:59N 48°09' W 005°13'5 9.6
2018-Feb-10 13:30N 48°07' W 005°19'4 9.1
2018-Feb-10 13:01N 48°04' W 005°24'1 1.4
2018-Feb-10 12:27N 48°04' W 005°25'1 2.0
2018-Feb-10 12:00N 48°03' W 005°25'1 1.4
2018-Feb-10 11:28N 48°02' W 005°24'2 4.3
2018-Feb-10 11:00N 48°04' W 005°26'1 2.0
2018-Feb-10 10:25N 48°03' W 005°26'1 1.5
2018-Feb-10 09:58N 48°02' W 005°26'1 1.5
2018-Feb-10 09:30N 48°01' W 005°26'3 6.3
2018-Feb-10 09:00N 47°58' W 005°26'1 1.6
2018-Feb-10 08:30N 47°57' W 005°26'1 1.4
2018-Feb-10 08:00N 47°57' W 005°26'1 1.5
2018-Feb-10 07:21N 47°56' W 005°26'2 3.8
2018-Feb-10 06:57N 47°57' W 005°24'3 5.5
2018-Feb-10 06:29N 47°54' W 005°23'5 9.6
2018-Feb-10 05:57N 47°60' W 005°23'2 4.8
2018-Feb-10 05:31N 48°02' W 005°23'1 1.9
2018-Feb-10 05:00N 48°03' W 005°23'1 1.6
2018-Feb-10 04:28N 48°03' W 005°24'0 0.9
2018-Feb-10 03:59N 48°04' W 005°24'3 6.8
2018-Feb-10 03:30N 48°06' W 005°20'3 6.6
2018-Feb-10 02:59N 48°07' W 005°15'5 9.1
2018-Feb-10 02:27N 48°09' W 005°09'5 9.0
2018-Feb-10 01:55N 48°12' W 005°03'4 8.9
2018-Feb-10 01:30N 48°14' W 004°58'4 8.9
2018-Feb-10 01:00N 48°17' W 004°53'5 9.0
2018-Feb-10 00:30N 48°20' W 004°48'1 0.1
2018-Feb-09 16:30N 48°19' W 004°49'5 9.3
2018-Feb-09 16:00N 48°16' W 004°54'7 0.5
2018-Feb-09 02:00N 48°11' W 005°01'4 8.9
2018-Feb-09 01:30N 48°14' W 004°56'4 8.8
2018-Feb-09 01:00N 48°17' W 004°51'2 0.2
2018-Feb-08 16:00N 48°16' W 004°53'4 0.3
2018-Feb-08 01:30N 48°14' W 004°58'5 9.5
2018-Feb-08 01:00N 48°17' W 004°52'5 9.8
2018-Feb-08 00:31N 48°21' W 004°47'1 0.1
2018-Feb-07 09:30N 48°22' W 004°47'2 3.1
2018-Feb-07 09:00N 48°20' W 004°48'5 9.0
2018-Feb-07 08:31N 48°17' W 004°52'5 9.2
2018-Feb-07 08:00N 48°13' W 004°57'5 9.4
2018-Feb-07 07:30N 48°10' W 005°02'510.0
2018-Feb-07 07:00N 48°07' W 005°07'5 9.6
2018-Feb-07 06:28N 48°03' W 005°13'4 9.6
2018-Feb-07 06:00N 48°00' W 005°18'5 8.7
2018-Feb-07 05:25N 47°56' W 005°23'2 4.5
2018-Feb-07 04:59N 47°56' W 005°26'4 8.8
2018-Feb-07 04:30N 48°01' W 005°25'4 7.5
2018-Feb-07 03:59N 48°05' W 005°24'5 5.7
2018-Feb-07 03:09N 47°60' W 005°26'1 8.5
2018-Feb-07 03:00N 48°01' W 005°25'5 9.1
2018-Feb-07 02:30N 48°03' W 005°18'5 9.7
2018-Feb-07 02:00N 48°05' W 005°12'5 9.7
2018-Feb-07 01:29N 48°08' W 005°06'5 9.8
2018-Feb-07 01:00N 48°11' W 005°00'5 9.7
2018-Feb-07 00:30N 48°14' W 004°55'9 9.1
2018-Feb-06 23:30N 48°22' W 004°47'0 0.0
2018-Feb-06 13:41N 48°22' W 004°47'1 4.1
2018-Feb-06 13:30N 48°21' W 004°47'4 8.1
2018-Feb-06 13:00N 48°18' W 004°50'4 8.9
2018-Feb-06 12:30N 48°14' W 004°55'4 8.6
2018-Feb-06 12:00N 48°12' W 005°00'5 8.5
2018-Feb-06 11:26N 48°08' W 005°06'4 8.2
2018-Feb-06 11:00N 48°06' W 005°10'6 8.1
2018-Feb-06 10:15N 48°02' W 005°16'2 8.2
2018-Feb-06 10:00N 48°00' W 005°18'6 8.3
2018-Feb-06 09:18N 47°56' W 005°24'1 2.2
2018-Feb-06 08:57N 47°56' W 005°25'4 8.7
2018-Feb-06 08:29N 47°60' W 005°24'4 8.1
2018-Feb-06 08:00N 48°04' W 005°24'4 5.1
2018-Feb-06 07:14N 48°07' W 005°25'1 1.7
2018-Feb-06 06:50N 48°07' W 005°25'2 4.5
2018-Feb-06 06:29N 48°05' W 005°24'2 4.7
2018-Feb-06 06:00N 48°07' W 005°25'2 3.3
2018-Feb-06 05:28N 48°09' W 005°26'0 0.9
2018-Feb-06 04:58N 48°09' W 005°27'3 3.0
2018-Feb-06 03:58N 48°06' W 005°27'1 2.6
2018-Feb-06 03:26N 48°05' W 005°27'9 5.5
2018-Feb-06 01:44N 47°55' W 005°25'3 9.5
2018-Feb-06 01:26N 47°57' W 005°22'410.2
2018-Feb-06 01:00N 48°00' W 005°17'1510.1
2018-Feb-05 23:30N 48°11' W 005°01'5 9.8
2018-Feb-05 23:00N 48°14' W 004°56'5 9.5
2018-Feb-05 22:30N 48°17' W 004°51'5 0.4
2018-Feb-05 10:59N 48°22' W 004°47'0 0.0
2018-Feb-05 09:00N 48°22' W 004°47'2 3.4
2018-Feb-05 08:30N 48°20' W 004°47'4 8.1
2018-Feb-05 08:00N 48°20' W 004°41'5 9.2
2018-Feb-05 07:30N 48°21' W 004°34'4 7.6
2018-Feb-05 07:00N 48°23' W 004°30'  
Track history (hours):
 
Tides and Currents Weather Stations Pressure Air Temp Water Temp Dewpoint Dewpoint Depression Visibility Wind Speed Wind Dir Waves Ship Positions

F/V Bugel Ar Konk

Last reported at 2018-Feb-12 18:15 UTC. Time now 2018-Feb-20 23:51 UTC.
Position N 48°22' W 004°47'.
Warning: this ship's position is 8 days out of date.

Length 16 m.

Type: Fishing. MMSI: 228336000.

Date/timePositionNaut miles runAvg speedWind from/ knotsBaromVisibWave heightAir tempDewpointWater temp
2018-Feb-12 18:15N 48°22' W 004°47'0 0.1
2018-Feb-12 18:00N 48°22' W 004°47'2 4.7
2018-Feb-12 17:31N 48°19' W 004°48'4 8.4
2018-Feb-12 17:00N 48°17' W 004°53'5 9.0
2018-Feb-12 16:30N 48°14' W 004°59'5 9.1
2018-Feb-12 16:00N 48°12' W 005°04'5 9.3
2018-Feb-12 15:30N 48°09' W 005°10'5 9.4
2018-Feb-12 15:00N 48°06' W 005°15'5 9.6
2018-Feb-12 14:30N 48°03' W 005°21'3 6.1
2018-Feb-12 13:58N 48°01' W 005°25'1 1.5
2018-Feb-12 13:30N 48°00' W 005°25'1 2.2
2018-Feb-12 13:00N 47°59' W 005°25'2 3.2
2018-Feb-12 12:19N 47°57' W 005°23'1 2.1
2018-Feb-12 11:56N 47°56' W 005°23'1 1.5
2018-Feb-12 11:17N 47°55' W 005°23'1 1.5
2018-Feb-12 10:55N 47°55' W 005°23'0 0.8
2018-Feb-12 10:30N 47°54' W 005°23'1 0.5
2018-Feb-12 09:19N 47°55' W 005°24'1 3.2
2018-Feb-12 09:00N 47°55' W 005°25'0 0.9
2018-Feb-12 08:28N 47°55' W 005°25'1 1.2
2018-Feb-12 08:00N 47°56' W 005°25'2 2.1
2018-Feb-12 07:16N 47°58' W 005°25'1 4.1
2018-Feb-12 06:59N 47°58' W 005°26'2 3.9
2018-Feb-12 06:30N 48°00' W 005°28'1 1.6
2018-Feb-12 05:58N 48°01' W 005°27'3 6.4
2018-Feb-12 05:29N 48°04' W 005°27'1 1.5
2018-Feb-12 04:56N 48°04' W 005°26'4 9.2
2018-Feb-12 04:30N 48°06' W 005°20'5 9.1
2018-Feb-12 03:59N 48°08' W 005°14'4 9.1
2018-Feb-12 03:30N 48°10' W 005°09'5 9.0
2018-Feb-12 02:59N 48°13' W 005°03'4 8.8
2018-Feb-12 02:30N 48°15' W 004°57'4 8.9
2018-Feb-12 02:00N 48°17' W 004°52'4 8.5
2018-Feb-12 01:30N 48°20' W 004°48'1 0.1
2018-Feb-11 17:01N 48°22' W 004°47'0 0.0
2018-Feb-11 16:58N 48°22' W 004°47'0 0.0
2018-Feb-11 16:28N 48°22' W 004°47'3 6.2
2018-Feb-11 16:01N 48°19' W 004°49'4 8.7
2018-Feb-11 15:31N 48°17' W 004°54'4 8.9
2018-Feb-11 15:00N 48°15' W 005°00'5 8.9
2018-Feb-11 14:30N 48°12' W 005°06'4 8.9
2018-Feb-11 14:00N 48°10' W 005°12'5 9.1
2018-Feb-11 13:27N 48°08' W 005°18'4 9.1
2018-Feb-11 13:00N 48°06' W 005°24'3 5.3
2018-Feb-11 12:29N 48°04' W 005°27'1 1.4
2018-Feb-11 11:57N 48°03' W 005°27'1 1.7
2018-Feb-11 11:30N 48°03' W 005°27'1 1.5
2018-Feb-11 11:00N 48°02' W 005°27'2 2.9
2018-Feb-11 10:29N 48°01' W 005°25'1 1.9
2018-Feb-11 09:58N 47°60' W 005°25'1 3.1
2018-Feb-11 09:29N 47°59' W 005°27'1 1.7
2018-Feb-11 08:59N 47°58' W 005°28'3 4.7
2018-Feb-11 08:27N 47°56' W 005°27'1 1.3
2018-Feb-11 07:22N 47°55' W 005°27'1 2.5
2018-Feb-11 06:54N 47°56' W 005°28'1 1.9
2018-Feb-11 06:25N 47°57' W 005°28'1 1.8
2018-Feb-11 06:00N 47°57' W 005°28'0 0.8
2018-Feb-11 05:27N 47°58' W 005°27'4 9.3
2018-Feb-11 05:00N 48°00' W 005°23'5 9.3
2018-Feb-11 04:30N 48°03' W 005°17'5 9.2
2018-Feb-11 03:58N 48°07' W 005°12'4 8.2
2018-Feb-11 03:29N 48°09' W 005°07'4 8.9
2018-Feb-11 03:00N 48°11' W 005°02'4 8.9
2018-Feb-11 02:30N 48°14' W 004°57'5 9.1
2018-Feb-11 02:00N 48°17' W 004°52'5 9.2
2018-Feb-11 01:30N 48°21' W 004°47'1 0.1
2018-Feb-10 17:28N 48°22' W 004°47'0 0.1
2018-Feb-10 17:00N 48°22' W 004°47'0 0.0
2018-Feb-10 16:30N 48°22' W 004°47'3 5.3
2018-Feb-10 16:01N 48°19' W 004°49'5 9.1
2018-Feb-10 15:30N 48°17' W 004°54'5 9.5
2018-Feb-10 15:00N 48°15' W 005°01'5 9.5
2018-Feb-10 14:29N 48°12' W 005°07'5 9.5
2018-Feb-10 13:59N 48°09' W 005°13'5 9.6
2018-Feb-10 13:30N 48°07' W 005°19'4 9.1
2018-Feb-10 13:01N 48°04' W 005°24'1 1.4
2018-Feb-10 12:27N 48°04' W 005°25'1 2.0
2018-Feb-10 12:00N 48°03' W 005°25'1 1.4
2018-Feb-10 11:28N 48°02' W 005°24'2 4.3
2018-Feb-10 11:00N 48°04' W 005°26'1 2.0
2018-Feb-10 10:25N 48°03' W 005°26'1 1.5
2018-Feb-10 09:58N 48°02' W 005°26'1 1.5
2018-Feb-10 09:30N 48°01' W 005°26'3 6.3
2018-Feb-10 09:00N 47°58' W 005°26'1 1.6
2018-Feb-10 08:30N 47°57' W 005°26'1 1.4
2018-Feb-10 08:00N 47°57' W 005°26'1 1.5
2018-Feb-10 07:21N 47°56' W 005°26'2 3.8
2018-Feb-10 06:57N 47°57' W 005°24'3 5.5
2018-Feb-10 06:29N 47°54' W 005°23'5 9.6
2018-Feb-10 05:57N 47°60' W 005°23'2 4.8
2018-Feb-10 05:31N 48°02' W 005°23'1 1.9
2018-Feb-10 05:00N 48°03' W 005°23'1 1.6
2018-Feb-10 04:28N 48°03' W 005°24'0 0.9
2018-Feb-10 03:59N 48°04' W 005°24'3 6.8
2018-Feb-10 03:30N 48°06' W 005°20'3 6.6
2018-Feb-10 02:59N 48°07' W 005°15'5 9.1
2018-Feb-10 02:27N 48°09' W 005°09'5 9.0
2018-Feb-10 01:55N 48°12' W 005°03'4 8.9
2018-Feb-10 01:30N 48°14' W 004°58'4 8.9
2018-Feb-10 01:00N 48°17' W 004°53'5 9.0
2018-Feb-10 00:30N 48°20' W 004°48'1 0.1
2018-Feb-09 16:30N 48°19' W 004°49'5 9.3
2018-Feb-09 16:00N 48°16' W 004°54'7 0.5
2018-Feb-09 02:00N 48°11' W 005°01'4 8.9
2018-Feb-09 01:30N 48°14' W 004°56'4 8.8
2018-Feb-09 01:00N 48°17' W 004°51'2 0.2
2018-Feb-08 16:00N 48°16' W 004°53'4 0.3
2018-Feb-08 01:30N 48°14' W 004°58'5 9.5
2018-Feb-08 01:00N 48°17' W 004°52'5 9.8
2018-Feb-08 00:31N 48°21' W 004°47'1 0.1
2018-Feb-07 09:30N 48°22' W 004°47'2 3.1
2018-Feb-07 09:00N 48°20' W 004°48'5 9.0
2018-Feb-07 08:31N 48°17' W 004°52'5 9.2
2018-Feb-07 08:00N 48°13' W 004°57'5 9.4
2018-Feb-07 07:30N 48°10' W 005°02'510.0
2018-Feb-07 07:00N 48°07' W 005°07'5 9.6
2018-Feb-07 06:28N 48°03' W 005°13'4 9.6
2018-Feb-07 06:00N 48°00' W 005°18'5 8.7
2018-Feb-07 05:25N 47°56' W 005°23'2 4.5
2018-Feb-07 04:59N 47°56' W 005°26'4 8.8
2018-Feb-07 04:30N 48°01' W 005°25'4 7.5
2018-Feb-07 03:59N 48°05' W 005°24'5 5.7
2018-Feb-07 03:09N 47°60' W 005°26'1 8.5
2018-Feb-07 03:00N 48°01' W 005°25'5 9.1
2018-Feb-07 02:30N 48°03' W 005°18'5 9.7
2018-Feb-07 02:00N 48°05' W 005°12'5 9.7
2018-Feb-07 01:29N 48°08' W 005°06'5 9.8
2018-Feb-07 01:00N 48°11' W 005°00'5 9.7
2018-Feb-07 00:30N 48°14' W 004°55'9 9.1
2018-Feb-06 23:30N 48°22' W 004°47'0 0.0
2018-Feb-06 13:41N 48°22' W 004°47'1 4.1
2018-Feb-06 13:30N 48°21' W 004°47'4 8.1
2018-Feb-06 13:00N 48°18' W 004°50'4 8.9
2018-Feb-06 12:30N 48°14' W 004°55'4 8.6
2018-Feb-06 12:00N 48°12' W 005°00'5 8.5
2018-Feb-06 11:26N 48°08' W 005°06'4 8.2
2018-Feb-06 11:00N 48°06' W 005°10'6 8.1
2018-Feb-06 10:15N 48°02' W 005°16'2 8.2
2018-Feb-06 10:00N 48°00' W 005°18'6 8.3
2018-Feb-06 09:18N 47°56' W 005°24'1 2.2
2018-Feb-06 08:57N 47°56' W 005°25'4 8.7
2018-Feb-06 08:29N 47°60' W 005°24'4 8.1
2018-Feb-06 08:00N 48°04' W 005°24'4 5.1
2018-Feb-06 07:14N 48°07' W 005°25'1 1.7
2018-Feb-06 06:50N 48°07' W 005°25'2 4.5
2018-Feb-06 06:29N 48°05' W 005°24'2 4.7
2018-Feb-06 06:00N 48°07' W 005°25'2 3.3
2018-Feb-06 05:28N 48°09' W 005°26'0 0.9
2018-Feb-06 04:58N 48°09' W 005°27'3 3.0
2018-Feb-06 03:58N 48°06' W 005°27'1 2.6
2018-Feb-06 03:26N 48°05' W 005°27'9 5.5
2018-Feb-06 01:44N 47°55' W 005°25'3 9.5
2018-Feb-06 01:26N 47°57' W 005°22'410.2
2018-Feb-06 01:00N 48°00' W 005°17'1510.1
2018-Feb-05 23:30N 48°11' W 005°01'5 9.8
2018-Feb-05 23:00N 48°14' W 004°56'5 9.5
2018-Feb-05 22:30N 48°17' W 004°51'5 0.4
2018-Feb-05 10:59N 48°22' W 004°47'0 0.0
2018-Feb-05 09:00N 48°22' W 004°47'2 3.4
2018-Feb-05 08:30N 48°20' W 004°47'4 8.1
2018-Feb-05 08:00N 48°20' W 004°41'5 9.2
2018-Feb-05 07:30N 48°21' W 004°34'4 7.6
2018-Feb-05 07:00N 48°23' W 004°30'  

Dump ship's entire track history